sensor_id;sensor_type;location;lat;lon;timestamp;temperature;humidity
27072;DHT22;14613;46.308;25.288;2023-05-10T00:00:55;9.00;65.60
27072;DHT22;14613;46.308;25.288;2023-05-10T00:03:20;9.00;65.60
27072;DHT22;14613;46.308;25.288;2023-05-10T00:05:46;8.90;65.70
27072;DHT22;14613;46.308;25.288;2023-05-10T00:08:12;8.80;65.80
27072;DHT22;14613;46.308;25.288;2023-05-10T00:10:38;8.80;66.00
27072;DHT22;14613;46.308;25.288;2023-05-10T00:13:04;8.70;66.00
27072;DHT22;14613;46.308;25.288;2023-05-10T00:15:29;8.60;66.20
27072;DHT22;14613;46.308;25.288;2023-05-10T00:18:00;8.60;66.40
27072;DHT22;14613;46.308;25.288;2023-05-10T00:20:25;8.50;66.40
27072;DHT22;14613;46.308;25.288;2023-05-10T00:22:51;8.40;66.50
27072;DHT22;14613;46.308;25.288;2023-05-10T00:25:17;8.40;66.50
27072;DHT22;14613;46.308;25.288;2023-05-10T00:27:43;8.30;66.60
27072;DHT22;14613;46.308;25.288;2023-05-10T00:30:09;8.30;66.70
27072;DHT22;14613;46.308;25.288;2023-05-10T00:32:35;8.20;66.90
27072;DHT22;14613;46.308;25.288;2023-05-10T00:35:00;8.10;67.10
27072;DHT22;14613;46.308;25.288;2023-05-10T00:37:26;8.00;67.30
27072;DHT22;14613;46.308;25.288;2023-05-10T00:39:52;7.80;67.50
27072;DHT22;14613;46.308;25.288;2023-05-10T00:42:18;7.70;67.90
27072;DHT22;14613;46.308;25.288;2023-05-10T00:44:44;7.60;68.20
27072;DHT22;14613;46.308;25.288;2023-05-10T00:47:10;7.50;68.50
27072;DHT22;14613;46.308;25.288;2023-05-10T00:49:37;7.40;68.70
27072;DHT22;14613;46.308;25.288;2023-05-10T00:52:03;7.30;69.00
27072;DHT22;14613;46.308;25.288;2023-05-10T00:54:29;7.10;69.40
27072;DHT22;14613;46.308;25.288;2023-05-10T00:56:55;7.10;69.70
27072;DHT22;14613;46.308;25.288;2023-05-10T00:59:22;7.00;69.90
27072;DHT22;14613;46.308;25.288;2023-05-10T01:01:49;7.00;70.00
27072;DHT22;14613;46.308;25.288;2023-05-10T01:04:15;7.00;70.00
27072;DHT22;14613;46.308;25.288;2023-05-10T01:06:41;6.90;70.00
27072;DHT22;14613;46.308;25.288;2023-05-10T01:09:07;6.90;69.90
27072;DHT22;14613;46.308;25.288;2023-05-10T01:11:35;7.00;69.90
27072;DHT22;14613;46.308;25.288;2023-05-10T01:14:02;7.00;69.90
27072;DHT22;14613;46.308;25.288;2023-05-10T01:16:31;6.90;69.70
27072;DHT22;14613;46.308;25.288;2023-05-10T01:18:58;7.00;69.70
27072;DHT22;14613;46.308;25.288;2023-05-10T01:30:35;6.90;70.00
27072;DHT22;14613;46.308;25.288;2023-05-10T01:33:23;6.90;70.20
27072;DHT22;14613;46.308;25.288;2023-05-10T01:38:38;6.80;70.20
27072;DHT22;14613;46.308;25.288;2023-05-10T01:44:33;6.80;70.30
27072;DHT22;14613;46.308;25.288;2023-05-10T01:47:10;6.80;70.50
27072;DHT22;14613;46.308;25.288;2023-05-10T01:49:41;6.80;70.60
27072;DHT22;14613;46.308;25.288;2023-05-10T01:52:12;6.70;70.60
27072;DHT22;14613;46.308;25.288;2023-05-10T01:54:44;6.70;70.80
27072;DHT22;14613;46.308;25.288;2023-05-10T01:57:13;6.70;70.80
27072;DHT22;14613;46.308;25.288;2023-05-10T01:59:40;6.70;70.80
27072;DHT22;14613;46.308;25.288;2023-05-10T02:02:08;6.60;70.70
27072;DHT22;14613;46.308;25.288;2023-05-10T02:04:39;6.70;71.50
27072;DHT22;14613;46.308;25.288;2023-05-10T02:07:06;6.60;70.70
27072;DHT22;14613;46.308;25.288;2023-05-10T02:09:33;6.60;70.70
27072;DHT22;14613;46.308;25.288;2023-05-10T02:12:01;6.60;70.70
27072;DHT22;14613;46.308;25.288;2023-05-10T02:14:32;6.50;70.70
27072;DHT22;14613;46.308;25.288;2023-05-10T02:17:00;6.50;70.70
27072;DHT22;14613;46.308;25.288;2023-05-10T02:19:28;6.50;70.70
27072;DHT22;14613;46.308;25.288;2023-05-10T02:21:55;6.50;70.70
27072;DHT22;14613;46.308;25.288;2023-05-10T02:24:21;6.50;70.70
27072;DHT22;14613;46.308;25.288;2023-05-10T02:26:48;6.50;70.80
27072;DHT22;14613;46.308;25.288;2023-05-10T02:29:15;6.50;70.70
27072;DHT22;14613;46.308;25.288;2023-05-10T02:31:42;6.50;70.70
27072;DHT22;14613;46.308;25.288;2023-05-10T02:34:10;6.40;70.70
27072;DHT22;14613;46.308;25.288;2023-05-10T02:36:37;6.30;70.90
27072;DHT22;14613;46.308;25.288;2023-05-10T02:39:04;6.40;71.00
27072;DHT22;14613;46.308;25.288;2023-05-10T02:41:32;6.30;70.90
27072;DHT22;14613;46.308;25.288;2023-05-10T02:44:00;6.30;71.00
27072;DHT22;14613;46.308;25.288;2023-05-10T02:46:28;6.30;71.00
27072;DHT22;14613;46.308;25.288;2023-05-10T02:48:54;6.40;71.10
27072;DHT22;14613;46.308;25.288;2023-05-10T02:51:21;6.30;71.10
27072;DHT22;14613;46.308;25.288;2023-05-10T02:53:51;6.30;71.00
27072;DHT22;14613;46.308;25.288;2023-05-10T02:56:50;6.30;71.00
27072;DHT22;14613;46.308;25.288;2023-05-10T02:59:16;6.30;71.00
27072;DHT22;14613;46.308;25.288;2023-05-10T03:01:42;6.30;71.00
27072;DHT22;14613;46.308;25.288;2023-05-10T03:04:08;6.40;71.10
27072;DHT22;14613;46.308;25.288;2023-05-10T03:06:33;6.30;71.00
27072;DHT22;14613;46.308;25.288;2023-05-10T03:09:00;6.40;71.10
27072;DHT22;14613;46.308;25.288;2023-05-10T03:14:32;6.40;71.20
27072;DHT22;14613;46.308;25.288;2023-05-10T03:25:23;6.70;72.70
27072;DHT22;14613;46.308;25.288;2023-05-10T03:27:49;7.00;73.20
27072;DHT22;14613;46.308;25.288;2023-05-10T03:30:16;7.50;73.20
27072;DHT22;14613;46.308;25.288;2023-05-10T03:32:42;7.80;72.90
27072;DHT22;14613;46.308;25.288;2023-05-10T03:35:11;8.20;72.70
27072;DHT22;14613;46.308;25.288;2023-05-10T03:37:38;8.40;72.60
27072;DHT22;14613;46.308;25.288;2023-05-10T03:40:05;8.70;72.70
27072;DHT22;14613;46.308;25.288;2023-05-10T03:42:31;9.10;72.60
27072;DHT22;14613;46.308;25.288;2023-05-10T03:44:57;9.50;72.40
27072;DHT22;14613;46.308;25.288;2023-05-10T03:47:22;9.90;71.90
27072;DHT22;14613;46.308;25.288;2023-05-10T03:49:48;10.30;71.50
27072;DHT22;14613;46.308;25.288;2023-05-10T03:52:14;10.80;71.20
27072;DHT22;14613;46.308;25.288;2023-05-10T03:54:40;11.20;70.80
27072;DHT22;14613;46.308;25.288;2023-05-10T03:57:05;11.60;70.00
27072;DHT22;14613;46.308;25.288;2023-05-10T03:59:31;12.00;69.60
27072;DHT22;14613;46.308;25.288;2023-05-10T04:01:57;12.40;69.30
27072;DHT22;14613;46.308;25.288;2023-05-10T04:04:23;12.90;68.70
27072;DHT22;14613;46.308;25.288;2023-05-10T04:06:49;13.40;68.00
27072;DHT22;14613;46.308;25.288;2023-05-10T04:09:15;13.80;67.20
27072;DHT22;14613;46.308;25.288;2023-05-10T04:11:42;14.20;66.70
27072;DHT22;14613;46.308;25.288;2023-05-10T04:14:08;14.60;67.00
27072;DHT22;14613;46.308;25.288;2023-05-10T04:16:33;14.90;65.10
27072;DHT22;14613;46.308;25.288;2023-05-10T04:18:59;15.20;64.60
27072;DHT22;14613;46.308;25.288;2023-05-10T04:21:25;15.50;64.10
27072;DHT22;14613;46.308;25.288;2023-05-10T04:23:51;15.70;63.50
27072;DHT22;14613;46.308;25.288;2023-05-10T04:26:17;16.00;63.00
27072;DHT22;14613;46.308;25.288;2023-05-10T04:28:43;16.20;62.40
27072;DHT22;14613;46.308;25.288;2023-05-10T04:31:09;16.40;61.90
27072;DHT22;14613;46.308;25.288;2023-05-10T04:33:37;16.60;61.20
27072;DHT22;14613;46.308;25.288;2023-05-10T04:36:03;16.70;60.70
27072;DHT22;14613;46.308;25.288;2023-05-10T04:38:30;16.90;60.40
27072;DHT22;14613;46.308;25.288;2023-05-10T04:41:07;17.00;60.00
27072;DHT22;14613;46.308;25.288;2023-05-10T04:43:33;17.30;59.80
27072;DHT22;14613;46.308;25.288;2023-05-10T04:45:59;17.50;59.50
27072;DHT22;14613;46.308;25.288;2023-05-10T04:48:25;17.80;59.10
27072;DHT22;14613;46.308;25.288;2023-05-10T04:50:51;18.10;58.90
27072;DHT22;14613;46.308;25.288;2023-05-10T04:53:17;18.30;58.20
27072;DHT22;14613;46.308;25.288;2023-05-10T04:55:42;18.60;57.80
27072;DHT22;14613;46.308;25.288;2023-05-10T04:58:08;18.70;57.50
27072;DHT22;14613;46.308;25.288;2023-05-10T05:00:34;18.80;57.10
27072;DHT22;14613;46.308;25.288;2023-05-10T05:03:00;18.90;56.90
27072;DHT22;14613;46.308;25.288;2023-05-10T05:05:26;19.00;56.70
27072;DHT22;14613;46.308;25.288;2023-05-10T05:07:52;19.10;56.50
27072;DHT22;14613;46.308;25.288;2023-05-10T05:10:18;19.20;56.10
27072;DHT22;14613;46.308;25.288;2023-05-10T05:12:43;19.30;56.10
27072;DHT22;14613;46.308;25.288;2023-05-10T05:15:10;19.40;56.10
27072;DHT22;14613;46.308;25.288;2023-05-10T05:17:36;19.60;55.70
27072;DHT22;14613;46.308;25.288;2023-05-10T05:20:02;19.80;55.70
27072;DHT22;14613;46.308;25.288;2023-05-10T05:22:28;20.00;55.40
27072;DHT22;14613;46.308;25.288;2023-05-10T05:24:55;20.30;54.90
27072;DHT22;14613;46.308;25.288;2023-05-10T05:27:20;20.60;54.40
27072;DHT22;14613;46.308;25.288;2023-05-10T05:29:50;20.70;53.70
27072;DHT22;14613;46.308;25.288;2023-05-10T05:32:16;20.70;53.20
27072;DHT22;14613;46.308;25.288;2023-05-10T05:34:44;20.60;52.80
27072;DHT22;14613;46.308;25.288;2023-05-10T05:37:18;20.50;52.80
27072;DHT22;14613;46.308;25.288;2023-05-10T05:39:45;20.50;52.90
27072;DHT22;14613;46.308;25.288;2023-05-10T05:42:11;20.40;52.60
27072;DHT22;14613;46.308;25.288;2023-05-10T05:44:38;20.20;52.90
27072;DHT22;14613;46.308;25.288;2023-05-10T05:47:03;20.30;53.30
27072;DHT22;14613;46.308;25.288;2023-05-10T05:49:29;20.60;53.40
27072;DHT22;14613;46.308;25.288;2023-05-10T05:51:59;20.90;52.80
27072;DHT22;14613;46.308;25.288;2023-05-10T05:54:26;21.10;52.30
27072;DHT22;14613;46.308;25.288;2023-05-10T05:56:59;21.30;51.80
27072;DHT22;14613;46.308;25.288;2023-05-10T05:59:26;21.30;51.10
27072;DHT22;14613;46.308;25.288;2023-05-10T06:01:52;21.40;51.30
27072;DHT22;14613;46.308;25.288;2023-05-10T06:04:18;21.40;49.90
27072;DHT22;14613;46.308;25.288;2023-05-10T06:06:44;21.00;49.10
27072;DHT22;14613;46.308;25.288;2023-05-10T06:09:10;20.60;49.40
27072;DHT22;14613;46.308;25.288;2023-05-10T06:11:36;20.40;50.00
27072;DHT22;14613;46.308;25.288;2023-05-10T06:14:03;20.40;50.00
27072;DHT22;14613;46.308;25.288;2023-05-10T06:16:33;20.50;50.30
27072;DHT22;14613;46.308;25.288;2023-05-10T06:18:59;20.90;50.40
27072;DHT22;14613;46.308;25.288;2023-05-10T06:21:25;21.30;49.80
27072;DHT22;14613;46.308;25.288;2023-05-10T06:23:51;21.30;47.80
27072;DHT22;14613;46.308;25.288;2023-05-10T06:26:17;21.00;47.50
27072;DHT22;14613;46.308;25.288;2023-05-10T06:28:42;20.50;47.20
27072;DHT22;14613;46.308;25.288;2023-05-10T06:31:08;20.00;47.30
27072;DHT22;14613;46.308;25.288;2023-05-10T06:33:34;19.40;47.60
27072;DHT22;14613;46.308;25.288;2023-05-10T06:36:00;18.80;48.20
27072;DHT22;14613;46.308;25.288;2023-05-10T06:38:26;18.50;49.00
27072;DHT22;14613;46.308;25.288;2023-05-10T06:40:52;18.40;49.60
27072;DHT22;14613;46.308;25.288;2023-05-10T06:43:18;18.40;49.70
27072;DHT22;14613;46.308;25.288;2023-05-10T06:45:43;18.20;49.50
27072;DHT22;14613;46.308;25.288;2023-05-10T06:48:09;17.90;50.00
27072;DHT22;14613;46.308;25.288;2023-05-10T06:50:35;17.80;50.40
27072;DHT22;14613;46.308;25.288;2023-05-10T06:53:01;17.80;50.50
27072;DHT22;14613;46.308;25.288;2023-05-10T06:55:27;17.80;50.80
27072;DHT22;14613;46.308;25.288;2023-05-10T06:57:54;17.90;50.80
27072;DHT22;14613;46.308;25.288;2023-05-10T07:00:20;17.90;50.80
27072;DHT22;14613;46.308;25.288;2023-05-10T07:02:46;17.90;50.80
27072;DHT22;14613;46.308;25.288;2023-05-10T07:05:13;17.70;51.00
27072;DHT22;14613;46.308;25.288;2023-05-10T07:07:39;17.50;51.20
27072;DHT22;14613;46.308;25.288;2023-05-10T07:10:05;17.30;51.10
27072;DHT22;14613;46.308;25.288;2023-05-10T07:12:31;17.30;51.40
27072;DHT22;14613;46.308;25.288;2023-05-10T07:14:57;17.20;51.60
27072;DHT22;14613;46.308;25.288;2023-05-10T07:17:23;17.30;51.90
27072;DHT22;14613;46.308;25.288;2023-05-10T07:19:49;17.50;52.30
27072;DHT22;14613;46.308;25.288;2023-05-10T07:22:15;17.70;52.20
27072;DHT22;14613;46.308;25.288;2023-05-10T07:24:42;17.80;52.00
27072;DHT22;14613;46.308;25.288;2023-05-10T07:27:08;18.00;52.00
27072;DHT22;14613;46.308;25.288;2023-05-10T07:29:34;18.20;51.50
27072;DHT22;14613;46.308;25.288;2023-05-10T07:32:00;18.30;51.00
27072;DHT22;14613;46.308;25.288;2023-05-10T07:34:26;18.30;51.00
27072;DHT22;14613;46.308;25.288;2023-05-10T07:36:53;18.40;50.60
27072;DHT22;14613;46.308;25.288;2023-05-10T07:39:19;18.60;50.60
27072;DHT22;14613;46.308;25.288;2023-05-10T07:41:46;18.90;50.60
27072;DHT22;14613;46.308;25.288;2023-05-10T07:44:12;19.20;50.10
27072;DHT22;14613;46.308;25.288;2023-05-10T07:46:38;19.30;49.80
27072;DHT22;14613;46.308;25.288;2023-05-10T07:49:04;19.60;50.20
27072;DHT22;14613;46.308;25.288;2023-05-10T07:51:30;19.90;50.00
27072;DHT22;14613;46.308;25.288;2023-05-10T07:53:56;20.20;49.80
27072;DHT22;14613;46.308;25.288;2023-05-10T07:56:28;20.50;49.10
27072;DHT22;14613;46.308;25.288;2023-05-10T07:58:59;20.80;48.90
27072;DHT22;14613;46.308;25.288;2023-05-10T08:01:25;20.80;48.00
27072;DHT22;14613;46.308;25.288;2023-05-10T08:03:51;20.50;47.90
27072;DHT22;14613;46.308;25.288;2023-05-10T08:06:19;20.20;48.00
27072;DHT22;14613;46.308;25.288;2023-05-10T08:08:46;20.00;48.50
27072;DHT22;14613;46.308;25.288;2023-05-10T08:11:18;20.10;48.80
27072;DHT22;14613;46.308;25.288;2023-05-10T08:13:45;20.20;48.30
27072;DHT22;14613;46.308;25.288;2023-05-10T08:16:10;20.00;48.20
27072;DHT22;14613;46.308;25.288;2023-05-10T08:18:37;19.80;48.10
27072;DHT22;14613;46.308;25.288;2023-05-10T08:21:03;19.50;48.10
27072;DHT22;14613;46.308;25.288;2023-05-10T08:23:29;19.20;48.40
27072;DHT22;14613;46.308;25.288;2023-05-10T08:25:54;19.10;48.70
27072;DHT22;14613;46.308;25.288;2023-05-10T08:28:20;19.00;49.00
27072;DHT22;14613;46.308;25.288;2023-05-10T08:30:46;19.10;49.20
27072;DHT22;14613;46.308;25.288;2023-05-10T08:33:12;19.10;49.20
27072;DHT22;14613;46.308;25.288;2023-05-10T08:35:38;19.10;49.30
27072;DHT22;14613;46.308;25.288;2023-05-10T08:38:03;19.10;49.30
27072;DHT22;14613;46.308;25.288;2023-05-10T08:40:29;19.10;49.10
27072;DHT22;14613;46.308;25.288;2023-05-10T08:43:21;19.00;49.30
27072;DHT22;14613;46.308;25.288;2023-05-10T08:45:50;19.00;49.50
27072;DHT22;14613;46.308;25.288;2023-05-10T08:48:18;19.00;49.40
27072;DHT22;14613;46.308;25.288;2023-05-10T08:50:45;18.80;49.30
27072;DHT22;14613;46.308;25.288;2023-05-10T08:53:13;18.60;49.40
27072;DHT22;14613;46.308;25.288;2023-05-10T08:55:40;18.50;49.50
27072;DHT22;14613;46.308;25.288;2023-05-10T08:58:08;18.40;49.70
27072;DHT22;14613;46.308;25.288;2023-05-10T09:00:34;18.20;49.40
27072;DHT22;14613;46.308;25.288;2023-05-10T09:03:02;18.10;49.60
27072;DHT22;14613;46.308;25.288;2023-05-10T09:05:28;18.10;49.90
27072;DHT22;14613;46.308;25.288;2023-05-10T09:07:54;18.20;50.00
27072;DHT22;14613;46.308;25.288;2023-05-10T09:10:20;18.30;49.90
27072;DHT22;14613;46.308;25.288;2023-05-10T09:12:47;18.20;49.40
27072;DHT22;14613;46.308;25.288;2023-05-10T09:15:15;18.20;49.60
27072;DHT22;14613;46.308;25.288;2023-05-10T09:17:42;18.00;50.10
27072;DHT22;14613;46.308;25.288;2023-05-10T09:20:09;17.90;49.50
27072;DHT22;14613;46.308;25.288;2023-05-10T09:22:35;17.90;49.70
27072;DHT22;14613;46.308;25.288;2023-05-10T09:25:10;18.00;49.60
27072;DHT22;14613;46.308;25.288;2023-05-10T09:27:39;17.90;49.50
27072;DHT22;14613;46.308;25.288;2023-05-10T09:30:07;17.90;49.70
27072;DHT22;14613;46.308;25.288;2023-05-10T09:32:40;17.80;49.50
27072;DHT22;14613;46.308;25.288;2023-05-10T09:35:16;17.60;49.60
27072;DHT22;14613;46.308;25.288;2023-05-10T09:37:45;17.50;49.60
27072;DHT22;14613;46.308;25.288;2023-05-10T09:40:15;17.50;49.60
27072;DHT22;14613;46.308;25.288;2023-05-10T09:42:56;17.30;49.50
27072;DHT22;14613;46.308;25.288;2023-05-10T09:45:24;17.20;49.50
27072;DHT22;14613;46.308;25.288;2023-05-10T09:47:50;17.10;49.60
27072;DHT22;14613;46.308;25.288;2023-05-10T09:50:15;17.20;49.90
27072;DHT22;14613;46.308;25.288;2023-05-10T09:55:13;17.30;50.00
27072;DHT22;14613;46.308;25.288;2023-05-10T09:57:39;17.50;50.00
27072;DHT22;14613;46.308;25.288;2023-05-10T10:00:06;17.60;49.70
27072;DHT22;14613;46.308;25.288;2023-05-10T10:02:32;17.80;49.70
27072;DHT22;14613;46.308;25.288;2023-05-10T10:05:00;17.90;49.50
27072;DHT22;14613;46.308;25.288;2023-05-10T10:07:27;18.10;49.40
27072;DHT22;14613;46.308;25.288;2023-05-10T10:09:53;18.10;49.20
27072;DHT22;14613;46.308;25.288;2023-05-10T10:12:19;18.20;48.90
27072;DHT22;14613;46.308;25.288;2023-05-10T10:14:48;18.10;48.80
27072;DHT22;14613;46.308;25.288;2023-05-10T10:17:16;18.10;49.10
27072;DHT22;14613;46.308;25.288;2023-05-10T10:19:42;18.20;49.10
27072;DHT22;14613;46.308;25.288;2023-05-10T10:22:08;18.30;49.20
27072;DHT22;14613;46.308;25.288;2023-05-10T10:24:36;18.40;49.10
27072;DHT22;14613;46.308;25.288;2023-05-10T10:27:13;18.40;48.60
27072;DHT22;14613;46.308;25.288;2023-05-10T10:32:42;18.30;48.60
27072;DHT22;14613;46.308;25.288;2023-05-10T10:35:11;18.50;48.90
27072;DHT22;14613;46.308;25.288;2023-05-10T10:37:47;18.70;48.80
27072;DHT22;14613;46.308;25.288;2023-05-10T10:40:30;19.00;48.80
27072;DHT22;14613;46.308;25.288;2023-05-10T10:42:57;19.10;48.50
27072;DHT22;14613;46.308;25.288;2023-05-10T10:45:24;19.30;48.40
27072;DHT22;14613;46.308;25.288;2023-05-10T10:48:20;19.40;48.00
27072;DHT22;14613;46.308;25.288;2023-05-10T10:50:46;19.40;47.60
27072;DHT22;14613;46.308;25.288;2023-05-10T10:53:12;19.40;47.80
27072;DHT22;14613;46.308;25.288;2023-05-10T10:55:48;19.40;47.60
27072;DHT22;14613;46.308;25.288;2023-05-10T10:58:34;19.50;47.60
27072;DHT22;14613;46.308;25.288;2023-05-10T11:01:17;19.40;47.00
27072;DHT22;14613;46.308;25.288;2023-05-10T11:04:18;19.50;47.20
27072;DHT22;14613;46.308;25.288;2023-05-10T11:06:45;19.70;47.30
27072;DHT22;14613;46.308;25.288;2023-05-10T11:09:11;19.90;46.40
27072;DHT22;14613;46.308;25.288;2023-05-10T11:11:54;19.90;46.20
27072;DHT22;14613;46.308;25.288;2023-05-10T11:14:24;20.10;46.60
27072;DHT22;14613;46.308;25.288;2023-05-10T11:16:50;20.30;45.80
27072;DHT22;14613;46.308;25.288;2023-05-10T11:19:17;20.30;45.60
27072;DHT22;14613;46.308;25.288;2023-05-10T11:21:52;20.30;45.80
27072;DHT22;14613;46.308;25.288;2023-05-10T11:24:36;20.40;45.80
27072;DHT22;14613;46.308;25.288;2023-05-10T11:27:02;20.60;45.50
27072;DHT22;14613;46.308;25.288;2023-05-10T11:29:28;20.60;45.50
27072;DHT22;14613;46.308;25.288;2023-05-10T11:31:57;20.60;44.90
27072;DHT22;14613;46.308;25.288;2023-05-10T11:36:54;20.20;44.50
27072;DHT22;14613;46.308;25.288;2023-05-10T11:39:21;20.20;44.70
27072;DHT22;14613;46.308;25.288;2023-05-10T11:41:50;20.10;44.50
27072;DHT22;14613;46.308;25.288;2023-05-10T11:44:16;20.10;44.60
27072;DHT22;14613;46.308;25.288;2023-05-10T11:46:42;20.10;44.40
27072;DHT22;14613;46.308;25.288;2023-05-10T11:49:08;20.10;44.40
27072;DHT22;14613;46.308;25.288;2023-05-10T11:51:34;20.10;44.30
27072;DHT22;14613;46.308;25.288;2023-05-10T11:54:09;20.10;44.10
27072;DHT22;14613;46.308;25.288;2023-05-10T11:56:36;19.90;44.10
27072;DHT22;14613;46.308;25.288;2023-05-10T11:59:01;19.80;44.20
27072;DHT22;14613;46.308;25.288;2023-05-10T12:01:28;19.70;44.40
27072;DHT22;14613;46.308;25.288;2023-05-10T12:03:56;19.80;44.40
27072;DHT22;14613;46.308;25.288;2023-05-10T12:06:30;19.80;44.20
27072;DHT22;14613;46.308;25.288;2023-05-10T12:08:56;19.60;44.30
27072;DHT22;14613;46.308;25.288;2023-05-10T12:11:27;19.60;44.40
27072;DHT22;14613;46.308;25.288;2023-05-10T12:13:54;19.60;44.30
27072;DHT22;14613;46.308;25.288;2023-05-10T12:16:24;19.40;44.50
27072;DHT22;14613;46.308;25.288;2023-05-10T12:18:51;19.30;44.70
27072;DHT22;14613;46.308;25.288;2023-05-10T12:21:18;19.20;44.70
27072;DHT22;14613;46.308;25.288;2023-05-10T12:23:46;19.00;44.90
27072;DHT22;14613;46.308;25.288;2023-05-10T12:26:12;18.90;45.00
27072;DHT22;14613;46.308;25.288;2023-05-10T12:28:38;18.80;45.20
27072;DHT22;14613;46.308;25.288;2023-05-10T12:31:06;18.80;45.50
27072;DHT22;14613;46.308;25.288;2023-05-10T12:33:40;18.80;45.30
27072;DHT22;14613;46.308;25.288;2023-05-10T12:36:12;18.80;45.30
27072;DHT22;14613;46.308;25.288;2023-05-10T12:38:42;18.80;45.60
27072;DHT22;14613;46.308;25.288;2023-05-10T12:41:16;18.90;45.80
27072;DHT22;14613;46.308;25.288;2023-05-10T12:43:42;19.10;45.80
27072;DHT22;14613;46.308;25.288;2023-05-10T12:46:09;19.40;45.80
27072;DHT22;14613;46.308;25.288;2023-05-10T12:48:36;19.60;45.50
27072;DHT22;14613;46.308;25.288;2023-05-10T12:51:03;19.90;45.30
27072;DHT22;14613;46.308;25.288;2023-05-10T12:53:29;20.00;45.40
27072;DHT22;14613;46.308;25.288;2023-05-10T12:55:55;20.20;45.30
27072;DHT22;14613;46.308;25.288;2023-05-10T12:58:21;20.40;45.10
27072;DHT22;14613;46.308;25.288;2023-05-10T13:00:47;20.60;45.10
27072;DHT22;14613;46.308;25.288;2023-05-10T13:03:13;20.80;45.00
27072;DHT22;14613;46.308;25.288;2023-05-10T13:05:39;20.90;44.60
27072;DHT22;14613;46.308;25.288;2023-05-10T13:08:05;21.00;44.50
27072;DHT22;14613;46.308;25.288;2023-05-10T13:10:31;20.90;44.30
27072;DHT22;14613;46.308;25.288;2023-05-10T13:12:58;20.80;44.30
27072;DHT22;14613;46.308;25.288;2023-05-10T13:15:24;20.70;44.30
27072;DHT22;14613;46.308;25.288;2023-05-10T13:17:50;20.60;44.40
27072;DHT22;14613;46.308;25.288;2023-05-10T13:20:16;20.50;44.40
27072;DHT22;14613;46.308;25.288;2023-05-10T13:22:46;20.40;44.60
27072;DHT22;14613;46.308;25.288;2023-05-10T13:25:12;20.50;45.40
27072;DHT22;14613;46.308;25.288;2023-05-10T13:27:41;20.40;44.60
27072;DHT22;14613;46.308;25.288;2023-05-10T13:30:08;20.30;44.60
27072;DHT22;14613;46.308;25.288;2023-05-10T13:32:34;20.30;44.60
27072;DHT22;14613;46.308;25.288;2023-05-10T13:35:00;20.20;44.60
27072;DHT22;14613;46.308;25.288;2023-05-10T13:37:26;20.20;44.70
27072;DHT22;14613;46.308;25.288;2023-05-10T13:39:52;20.10;44.80
27072;DHT22;14613;46.308;25.288;2023-05-10T13:42:18;20.10;45.00
27072;DHT22;14613;46.308;25.288;2023-05-10T13:44:44;20.10;45.00
27072;DHT22;14613;46.308;25.288;2023-05-10T13:47:09;20.00;45.00
27072;DHT22;14613;46.308;25.288;2023-05-10T13:49:36;19.80;45.00
27072;DHT22;14613;46.308;25.288;2023-05-10T13:52:01;19.80;45.30
27072;DHT22;14613;46.308;25.288;2023-05-10T13:54:38;19.80;46.00
27072;DHT22;14613;46.308;25.288;2023-05-10T13:57:04;19.80;45.20
27072;DHT22;14613;46.308;25.288;2023-05-10T13:59:31;19.80;45.20
27072;DHT22;14613;46.308;25.288;2023-05-10T14:01:57;19.70;45.20
27072;DHT22;14613;46.308;25.288;2023-05-10T14:04:24;19.70;45.10
27072;DHT22;14613;46.308;25.288;2023-05-10T14:06:49;19.60;45.20
27072;DHT22;14613;46.308;25.288;2023-05-10T14:09:15;19.60;45.50
27072;DHT22;14613;46.308;25.288;2023-05-10T14:11:42;19.70;45.60
27072;DHT22;14613;46.308;25.288;2023-05-10T14:14:11;19.80;45.80
27072;DHT22;14613;46.308;25.288;2023-05-10T14:16:40;20.00;45.90
27072;DHT22;14613;46.308;25.288;2023-05-10T14:19:06;20.10;45.80
27072;DHT22;14613;46.308;25.288;2023-05-10T14:21:32;20.10;45.70
27072;DHT22;14613;46.308;25.288;2023-05-10T14:23:58;20.20;45.70
27072;DHT22;14613;46.308;25.288;2023-05-10T14:26:24;20.20;46.30
27072;DHT22;14613;46.308;25.288;2023-05-10T14:28:50;20.30;45.80
27072;DHT22;14613;46.308;25.288;2023-05-10T14:31:16;20.30;45.80
27072;DHT22;14613;46.308;25.288;2023-05-10T14:33:42;20.30;45.70
27072;DHT22;14613;46.308;25.288;2023-05-10T14:36:08;20.30;45.70
27072;DHT22;14613;46.308;25.288;2023-05-10T14:38:34;20.40;45.70
27072;DHT22;14613;46.308;25.288;2023-05-10T14:41:00;20.40;45.70
27072;DHT22;14613;46.308;25.288;2023-05-10T14:43:26;20.40;45.70
27072;DHT22;14613;46.308;25.288;2023-05-10T14:45:53;20.40;45.60
27072;DHT22;14613;46.308;25.288;2023-05-10T14:48:18;20.40;45.50
27072;DHT22;14613;46.308;25.288;2023-05-10T14:50:45;20.30;45.40
27072;DHT22;14613;46.308;25.288;2023-05-10T14:53:11;20.20;45.30
27072;DHT22;14613;46.308;25.288;2023-05-10T14:55:37;20.10;45.30
27072;DHT22;14613;46.308;25.288;2023-05-10T14:58:03;20.00;45.50
27072;DHT22;14613;46.308;25.288;2023-05-10T15:00:29;19.80;45.60
27072;DHT22;14613;46.308;25.288;2023-05-10T15:02:55;19.60;45.90
27072;DHT22;14613;46.308;25.288;2023-05-10T15:05:22;19.50;46.00
27072;DHT22;14613;46.308;25.288;2023-05-10T15:07:48;19.30;46.30
27072;DHT22;14613;46.308;25.288;2023-05-10T15:10:14;19.20;46.50
27072;DHT22;14613;46.308;25.288;2023-05-10T15:12:40;19.20;46.60
27072;DHT22;14613;46.308;25.288;2023-05-10T15:15:07;19.30;46.90
27072;DHT22;14613;46.308;25.288;2023-05-10T15:17:33;19.20;46.90
27072;DHT22;14613;46.308;25.288;2023-05-10T15:19:59;19.20;46.90
27072;DHT22;14613;46.308;25.288;2023-05-10T15:22:27;19.20;46.90
27072;DHT22;14613;46.308;25.288;2023-05-10T15:24:54;19.20;47.10
27072;DHT22;14613;46.308;25.288;2023-05-10T15:27:20;19.20;47.20
27072;DHT22;14613;46.308;25.288;2023-05-10T15:29:45;19.20;47.30
27072;DHT22;14613;46.308;25.288;2023-05-10T15:32:11;19.00;47.00
27072;DHT22;14613;46.308;25.288;2023-05-10T15:34:37;18.80;47.00
27072;DHT22;14613;46.308;25.288;2023-05-10T15:37:03;18.70;47.20
27072;DHT22;14613;46.308;25.288;2023-05-10T15:39:29;18.60;47.40
27072;DHT22;14613;46.308;25.288;2023-05-10T15:41:54;18.60;47.50
27072;DHT22;14613;46.308;25.288;2023-05-10T15:44:20;18.60;47.60
27072;DHT22;14613;46.308;25.288;2023-05-10T15:46:46;18.60;47.60
27072;DHT22;14613;46.308;25.288;2023-05-10T15:49:12;18.60;47.60
27072;DHT22;14613;46.308;25.288;2023-05-10T15:51:38;18.50;47.60
27072;DHT22;14613;46.308;25.288;2023-05-10T15:54:03;18.40;47.80
27072;DHT22;14613;46.308;25.288;2023-05-10T15:56:32;18.30;48.00